sensor_id;sensor_type;location;lat;lon;timestamp;P1;durP1;ratioP1;P2;durP2;ratioP2
20721;SDS011;10522;52.198;9.890;2023-12-14T00:00:17;9.83;;;5.90;;
20721;SDS011;10522;52.198;9.890;2023-12-14T00:02:44;8.90;;;5.63;;
20721;SDS011;10522;52.198;9.890;2023-12-14T00:05:09;9.30;;;5.17;;
20721;SDS011;10522;52.198;9.890;2023-12-14T00:07:35;11.27;;;6.53;;
20721;SDS011;10522;52.198;9.890;2023-12-14T00:10:01;9.67;;;5.50;;
20721;SDS011;10522;52.198;9.890;2023-12-14T00:12:27;11.37;;;7.27;;
20721;SDS011;10522;52.198;9.890;2023-12-14T00:14:53;12.17;;;7.87;;
20721;SDS011;10522;52.198;9.890;2023-12-14T00:17:18;13.13;;;7.07;;
20721;SDS011;10522;52.198;9.890;2023-12-14T00:19:44;10.17;;;6.47;;
20721;SDS011;10522;52.198;9.890;2023-12-14T00:22:10;10.30;;;6.23;;
20721;SDS011;10522;52.198;9.890;2023-12-14T00:24:36;8.53;;;6.03;;
20721;SDS011;10522;52.198;9.890;2023-12-14T00:27:01;10.17;;;5.87;;
20721;SDS011;10522;52.198;9.890;2023-12-14T00:29:27;8.27;;;5.40;;
20721;SDS011;10522;52.198;9.890;2023-12-14T00:31:52;8.00;;;4.90;;
20721;SDS011;10522;52.198;9.890;2023-12-14T00:34:18;8.67;;;5.53;;
20721;SDS011;10522;52.198;9.890;2023-12-14T00:36:44;8.00;;;5.27;;
20721;SDS011;10522;52.198;9.890;2023-12-14T00:39:09;10.13;;;5.60;;
20721;SDS011;10522;52.198;9.890;2023-12-14T00:41:35;8.00;;;5.17;;
20721;SDS011;10522;52.198;9.890;2023-12-14T00:44:00;8.57;;;4.83;;
20721;SDS011;10522;52.198;9.890;2023-12-14T00:46:26;10.00;;;5.83;;
20721;SDS011;10522;52.198;9.890;2023-12-14T00:48:52;10.40;;;5.87;;
20721;SDS011;10522;52.198;9.890;2023-12-14T00:51:17;8.67;;;5.43;;
20721;SDS011;10522;52.198;9.890;2023-12-14T00:53:43;7.67;;;5.10;;
20721;SDS011;10522;52.198;9.890;2023-12-14T00:56:08;8.70;;;5.80;;
20721;SDS011;10522;52.198;9.890;2023-12-14T00:58:34;6.43;;;4.43;;
20721;SDS011;10522;52.198;9.890;2023-12-14T01:01:00;6.77;;;4.53;;
20721;SDS011;10522;52.198;9.890;2023-12-14T01:03:25;7.53;;;4.97;;
20721;SDS011;10522;52.198;9.890;2023-12-14T01:05:51;6.23;;;4.53;;
20721;SDS011;10522;52.198;9.890;2023-12-14T01:08:16;5.40;;;3.90;;
20721;SDS011;10522;52.198;9.890;2023-12-14T01:10:42;7.97;;;4.77;;
20721;SDS011;10522;52.198;9.890;2023-12-14T01:13:08;9.50;;;4.60;;
20721;SDS011;10522;52.198;9.890;2023-12-14T01:15:34;8.13;;;5.23;;
20721;SDS011;10522;52.198;9.890;2023-12-14T01:17:59;7.70;;;5.00;;
20721;SDS011;10522;52.198;9.890;2023-12-14T01:20:25;7.97;;;5.43;;
20721;SDS011;10522;52.198;9.890;2023-12-14T01:22:50;11.33;;;6.10;;
20721;SDS011;10522;52.198;9.890;2023-12-14T01:25:16;9.67;;;5.97;;
20721;SDS011;10522;52.198;9.890;2023-12-14T01:27:41;8.43;;;4.77;;
20721;SDS011;10522;52.198;9.890;2023-12-14T01:30:07;7.00;;;4.77;;
20721;SDS011;10522;52.198;9.890;2023-12-14T01:32:33;7.00;;;4.87;;
20721;SDS011;10522;52.198;9.890;2023-12-14T01:34:58;8.23;;;4.20;;
20721;SDS011;10522;52.198;9.890;2023-12-14T01:37:24;7.60;;;4.67;;
20721;SDS011;10522;52.198;9.890;2023-12-14T01:39:49;6.50;;;4.37;;
20721;SDS011;10522;52.198;9.890;2023-12-14T01:42:15;6.53;;;4.30;;
20721;SDS011;10522;52.198;9.890;2023-12-14T01:44:41;6.27;;;3.90;;
20721;SDS011;10522;52.198;9.890;2023-12-14T01:47:06;9.30;;;5.07;;
20721;SDS011;10522;52.198;9.890;2023-12-14T01:49:32;8.43;;;5.00;;
20721;SDS011;10522;52.198;9.890;2023-12-14T01:51:57;8.90;;;5.50;;
20721;SDS011;10522;52.198;9.890;2023-12-14T01:54:23;7.63;;;5.27;;
20721;SDS011;10522;52.198;9.890;2023-12-14T01:56:48;6.23;;;4.40;;
20721;SDS011;10522;52.198;9.890;2023-12-14T01:59:14;10.07;;;5.10;;
20721;SDS011;10522;52.198;9.890;2023-12-14T02:01:41;9.87;;;5.27;;
20721;SDS011;10522;52.198;9.890;2023-12-14T02:04:12;6.63;;;4.80;;
20721;SDS011;10522;52.198;9.890;2023-12-14T02:06:39;7.47;;;4.87;;
20721;SDS011;10522;52.198;9.890;2023-12-14T02:09:05;8.93;;;4.97;;
20721;SDS011;10522;52.198;9.890;2023-12-14T02:11:31;12.87;;;5.93;;
20721;SDS011;10522;52.198;9.890;2023-12-14T02:13:57;9.43;;;5.53;;
20721;SDS011;10522;52.198;9.890;2023-12-14T02:16:22;7.43;;;5.13;;
20721;SDS011;10522;52.198;9.890;2023-12-14T02:18:48;9.93;;;5.57;;
20721;SDS011;10522;52.198;9.890;2023-12-14T02:21:14;7.57;;;5.13;;
20721;SDS011;10522;52.198;9.890;2023-12-14T02:23:46;7.03;;;4.70;;
20721;SDS011;10522;52.198;9.890;2023-12-14T02:26:12;9.07;;;5.73;;
20721;SDS011;10522;52.198;9.890;2023-12-14T02:28:38;8.27;;;5.17;;
20721;SDS011;10522;52.198;9.890;2023-12-14T02:31:03;7.00;;;5.43;;
20721;SDS011;10522;52.198;9.890;2023-12-14T02:33:29;10.20;;;5.87;;
20721;SDS011;10522;52.198;9.890;2023-12-14T02:35:55;7.43;;;5.47;;
20721;SDS011;10522;52.198;9.890;2023-12-14T02:38:20;8.43;;;5.57;;
20721;SDS011;10522;52.198;9.890;2023-12-14T02:40:46;10.90;;;6.20;;
20721;SDS011;10522;52.198;9.890;2023-12-14T02:43:12;7.60;;;5.27;;
20721;SDS011;10522;52.198;9.890;2023-12-14T02:45:37;10.37;;;5.47;;
20721;SDS011;10522;52.198;9.890;2023-12-14T02:48:03;8.60;;;5.87;;
20721;SDS011;10522;52.198;9.890;2023-12-14T02:50:29;7.60;;;5.63;;
20721;SDS011;10522;52.198;9.890;2023-12-14T02:52:55;8.67;;;5.73;;
20721;SDS011;10522;52.198;9.890;2023-12-14T02:55:20;7.33;;;5.37;;
20721;SDS011;10522;52.198;9.890;2023-12-14T02:57:46;9.73;;;6.00;;
20721;SDS011;10522;52.198;9.890;2023-12-14T03:00:12;7.33;;;5.33;;
20721;SDS011;10522;52.198;9.890;2023-12-14T03:02:38;6.53;;;4.50;;
20721;SDS011;10522;52.198;9.890;2023-12-14T03:05:03;7.87;;;4.73;;
20721;SDS011;10522;52.198;9.890;2023-12-14T03:07:29;7.27;;;4.87;;
20721;SDS011;10522;52.198;9.890;2023-12-14T03:09:55;6.40;;;4.67;;
20721;SDS011;10522;52.198;9.890;2023-12-14T03:12:20;5.47;;;4.73;;
20721;SDS011;10522;52.198;9.890;2023-12-14T03:14:46;9.03;;;4.70;;
20721;SDS011;10522;52.198;9.890;2023-12-14T03:17:11;7.00;;;4.63;;
20721;SDS011;10522;52.198;9.890;2023-12-14T03:19:41;5.57;;;4.53;;
20721;SDS011;10522;52.198;9.890;2023-12-14T03:22:07;8.30;;;4.37;;
20721;SDS011;10522;52.198;9.890;2023-12-14T03:24:33;7.17;;;4.20;;
20721;SDS011;10522;52.198;9.890;2023-12-14T03:26:59;9.53;;;4.73;;
20721;SDS011;10522;52.198;9.890;2023-12-14T03:29:25;6.73;;;4.87;;
20721;SDS011;10522;52.198;9.890;2023-12-14T03:31:52;6.67;;;4.20;;
20721;SDS011;10522;52.198;9.890;2023-12-14T03:34:17;6.47;;;4.63;;
20721;SDS011;10522;52.198;9.890;2023-12-14T03:36:43;6.67;;;4.47;;
20721;SDS011;10522;52.198;9.890;2023-12-14T03:39:08;7.43;;;5.60;;
20721;SDS011;10522;52.198;9.890;2023-12-14T03:41:35;6.60;;;5.10;;
20721;SDS011;10522;52.198;9.890;2023-12-14T03:44:00;6.97;;;5.50;;
20721;SDS011;10522;52.198;9.890;2023-12-14T03:46:26;9.57;;;5.77;;
20721;SDS011;10522;52.198;9.890;2023-12-14T03:48:52;7.90;;;5.47;;
20721;SDS011;10522;52.198;9.890;2023-12-14T03:51:18;9.30;;;6.50;;
20721;SDS011;10522;52.198;9.890;2023-12-14T03:53:44;8.93;;;6.23;;
20721;SDS011;10522;52.198;9.890;2023-12-14T03:56:10;11.63;;;7.00;;
20721;SDS011;10522;52.198;9.890;2023-12-14T03:58:36;10.30;;;6.27;;
20721;SDS011;10522;52.198;9.890;2023-12-14T04:01:01;9.83;;;5.97;;
20721;SDS011;10522;52.198;9.890;2023-12-14T04:03:27;10.37;;;7.43;;
20721;SDS011;10522;52.198;9.890;2023-12-14T04:05:53;8.57;;;5.90;;
20721;SDS011;10522;52.198;9.890;2023-12-14T04:08:18;11.83;;;6.50;;
20721;SDS011;10522;52.198;9.890;2023-12-14T04:10:44;10.20;;;7.43;;
20721;SDS011;10522;52.198;9.890;2023-12-14T04:13:09;9.53;;;6.07;;
20721;SDS011;10522;52.198;9.890;2023-12-14T04:15:35;8.63;;;6.13;;
20721;SDS011;10522;52.198;9.890;2023-12-14T04:18:00;10.53;;;6.43;;
20721;SDS011;10522;52.198;9.890;2023-12-14T04:20:26;9.60;;;7.07;;
20721;SDS011;10522;52.198;9.890;2023-12-14T04:22:51;12.37;;;6.57;;
20721;SDS011;10522;52.198;9.890;2023-12-14T04:25:17;9.37;;;6.50;;
20721;SDS011;10522;52.198;9.890;2023-12-14T04:27:42;13.33;;;7.13;;
20721;SDS011;10522;52.198;9.890;2023-12-14T04:30:08;9.27;;;6.40;;
20721;SDS011;10522;52.198;9.890;2023-12-14T04:32:36;10.07;;;6.60;;
20721;SDS011;10522;52.198;9.890;2023-12-14T04:35:02;10.80;;;7.00;;
20721;SDS011;10522;52.198;9.890;2023-12-14T04:37:28;11.20;;;7.63;;
20721;SDS011;10522;52.198;9.890;2023-12-14T04:39:55;11.23;;;7.17;;
20721;SDS011;10522;52.198;9.890;2023-12-14T04:42:20;11.93;;;7.60;;
20721;SDS011;10522;52.198;9.890;2023-12-14T04:44:46;17.57;;;8.53;;
20721;SDS011;10522;52.198;9.890;2023-12-14T04:47:11;15.00;;;7.87;;
20721;SDS011;10522;52.198;9.890;2023-12-14T04:49:37;11.83;;;7.60;;
20721;SDS011;10522;52.198;9.890;2023-12-14T04:52:03;13.23;;;8.73;;
20721;SDS011;10522;52.198;9.890;2023-12-14T04:54:28;12.93;;;8.50;;
20721;SDS011;10522;52.198;9.890;2023-12-14T04:56:54;18.07;;;9.27;;
20721;SDS011;10522;52.198;9.890;2023-12-14T04:59:20;13.47;;;8.73;;
20721;SDS011;10522;52.198;9.890;2023-12-14T05:01:45;17.17;;;8.57;;
20721;SDS011;10522;52.198;9.890;2023-12-14T05:04:11;18.97;;;10.40;;
20721;SDS011;10522;52.198;9.890;2023-12-14T05:06:37;14.70;;;9.13;;
20721;SDS011;10522;52.198;9.890;2023-12-14T05:09:03;18.50;;;9.97;;
20721;SDS011;10522;52.198;9.890;2023-12-14T05:11:29;15.93;;;8.97;;
20721;SDS011;10522;52.198;9.890;2023-12-14T05:13:55;15.60;;;9.37;;
20721;SDS011;10522;52.198;9.890;2023-12-14T05:16:20;15.47;;;9.40;;
20721;SDS011;10522;52.198;9.890;2023-12-14T05:18:46;16.73;;;9.77;;
20721;SDS011;10522;52.198;9.890;2023-12-14T05:21:18;14.80;;;9.03;;
20721;SDS011;10522;52.198;9.890;2023-12-14T05:23:43;17.37;;;9.40;;
20721;SDS011;10522;52.198;9.890;2023-12-14T05:26:09;15.97;;;9.27;;
20721;SDS011;10522;52.198;9.890;2023-12-14T05:28:35;15.47;;;9.13;;
20721;SDS011;10522;52.198;9.890;2023-12-14T05:31:00;15.40;;;8.73;;
20721;SDS011;10522;52.198;9.890;2023-12-14T05:33:27;15.43;;;9.33;;
20721;SDS011;10522;52.198;9.890;2023-12-14T05:35:53;13.53;;;8.83;;
20721;SDS011;10522;52.198;9.890;2023-12-14T05:38:19;15.23;;;9.40;;
20721;SDS011;10522;52.198;9.890;2023-12-14T05:40:45;15.33;;;8.87;;
20721;SDS011;10522;52.198;9.890;2023-12-14T05:43:10;13.73;;;8.20;;
20721;SDS011;10522;52.198;9.890;2023-12-14T05:45:36;13.53;;;8.63;;
20721;SDS011;10522;52.198;9.890;2023-12-14T05:48:02;12.10;;;7.03;;
20721;SDS011;10522;52.198;9.890;2023-12-14T05:50:30;10.40;;;7.60;;
20721;SDS011;10522;52.198;9.890;2023-12-14T05:52:56;11.73;;;7.87;;
20721;SDS011;10522;52.198;9.890;2023-12-14T05:55:21;13.73;;;7.90;;
20721;SDS011;10522;52.198;9.890;2023-12-14T05:57:50;9.83;;;7.13;;
20721;SDS011;10522;52.198;9.890;2023-12-14T06:00:17;12.03;;;6.47;;
20721;SDS011;10522;52.198;9.890;2023-12-14T06:02:43;13.90;;;7.90;;
20721;SDS011;10522;52.198;9.890;2023-12-14T06:05:08;11.70;;;7.30;;
20721;SDS011;10522;52.198;9.890;2023-12-14T06:07:34;11.97;;;6.97;;
20721;SDS011;10522;52.198;9.890;2023-12-14T06:10:00;14.63;;;7.47;;
20721;SDS011;10522;52.198;9.890;2023-12-14T06:12:26;13.50;;;8.30;;
20721;SDS011;10522;52.198;9.890;2023-12-14T06:14:52;13.33;;;7.97;;
20721;SDS011;10522;52.198;9.890;2023-12-14T06:17:18;11.00;;;7.20;;
20721;SDS011;10522;52.198;9.890;2023-12-14T06:19:43;10.60;;;7.30;;
20721;SDS011;10522;52.198;9.890;2023-12-14T06:22:09;10.83;;;6.87;;
20721;SDS011;10522;52.198;9.890;2023-12-14T06:24:34;11.07;;;6.37;;
20721;SDS011;10522;52.198;9.890;2023-12-14T06:27:00;10.67;;;7.07;;
20721;SDS011;10522;52.198;9.890;2023-12-14T06:29:25;10.70;;;7.43;;
20721;SDS011;10522;52.198;9.890;2023-12-14T06:31:51;10.93;;;7.30;;
20721;SDS011;10522;52.198;9.890;2023-12-14T06:34:17;9.23;;;6.53;;
20721;SDS011;10522;52.198;9.890;2023-12-14T06:36:43;10.13;;;6.23;;
20721;SDS011;10522;52.198;9.890;2023-12-14T06:39:09;8.33;;;6.60;;
20721;SDS011;10522;52.198;9.890;2023-12-14T06:41:36;9.07;;;6.30;;
20721;SDS011;10522;52.198;9.890;2023-12-14T06:44:01;9.87;;;6.70;;
20721;SDS011;10522;52.198;9.890;2023-12-14T06:46:27;10.47;;;6.47;;
20721;SDS011;10522;52.198;9.890;2023-12-14T06:48:53;9.53;;;6.80;;
20721;SDS011;10522;52.198;9.890;2023-12-14T06:51:20;11.80;;;7.20;;
20721;SDS011;10522;52.198;9.890;2023-12-14T06:53:46;11.83;;;6.93;;
20721;SDS011;10522;52.198;9.890;2023-12-14T06:56:12;10.93;;;7.20;;
20721;SDS011;10522;52.198;9.890;2023-12-14T06:58:38;11.50;;;7.10;;
20721;SDS011;10522;52.198;9.890;2023-12-14T07:01:05;12.23;;;7.43;;
20721;SDS011;10522;52.198;9.890;2023-12-14T07:03:31;15.73;;;9.37;;
20721;SDS011;10522;52.198;9.890;2023-12-14T07:05:57;18.70;;;10.17;;
20721;SDS011;10522;52.198;9.890;2023-12-14T07:08:23;17.37;;;8.17;;
20721;SDS011;10522;52.198;9.890;2023-12-14T07:10:49;14.83;;;8.93;;
20721;SDS011;10522;52.198;9.890;2023-12-14T07:13:14;16.43;;;8.30;;
20721;SDS011;10522;52.198;9.890;2023-12-14T07:15:40;20.23;;;8.70;;
20721;SDS011;10522;52.198;9.890;2023-12-14T07:18:06;12.40;;;7.50;;
20721;SDS011;10522;52.198;9.890;2023-12-14T07:20:31;10.90;;;7.20;;
20721;SDS011;10522;52.198;9.890;2023-12-14T07:22:57;10.80;;;7.17;;
20721;SDS011;10522;52.198;9.890;2023-12-14T07:25:22;10.40;;;6.43;;
20721;SDS011;10522;52.198;9.890;2023-12-14T07:27:48;12.37;;;7.33;;
20721;SDS011;10522;52.198;9.890;2023-12-14T07:30:14;11.27;;;7.27;;
20721;SDS011;10522;52.198;9.890;2023-12-14T07:32:39;13.60;;;7.97;;
20721;SDS011;10522;52.198;9.890;2023-12-14T07:35:05;9.83;;;6.50;;
20721;SDS011;10522;52.198;9.890;2023-12-14T07:37:31;9.60;;;6.47;;
20721;SDS011;10522;52.198;9.890;2023-12-14T07:39:57;10.83;;;6.90;;
20721;SDS011;10522;52.198;9.890;2023-12-14T07:42:25;10.70;;;7.00;;
20721;SDS011;10522;52.198;9.890;2023-12-14T07:44:51;10.30;;;6.77;;
20721;SDS011;10522;52.198;9.890;2023-12-14T07:47:16;10.97;;;6.93;;
20721;SDS011;10522;52.198;9.890;2023-12-14T07:49:42;9.73;;;6.83;;
20721;SDS011;10522;52.198;9.890;2023-12-14T07:52:08;13.93;;;6.87;;
20721;SDS011;10522;52.198;9.890;2023-12-14T07:54:34;13.27;;;6.90;;
20721;SDS011;10522;52.198;9.890;2023-12-14T07:57:00;16.57;;;7.70;;
20721;SDS011;10522;52.198;9.890;2023-12-14T07:59:26;11.47;;;6.97;;
20721;SDS011;10522;52.198;9.890;2023-12-14T08:01:52;13.83;;;6.47;;
20721;SDS011;10522;52.198;9.890;2023-12-14T08:04:17;13.07;;;7.30;;
20721;SDS011;10522;52.198;9.890;2023-12-14T08:06:43;14.67;;;8.77;;
20721;SDS011;10522;52.198;9.890;2023-12-14T08:09:08;14.93;;;7.50;;
20721;SDS011;10522;52.198;9.890;2023-12-14T08:11:34;12.00;;;7.80;;
20721;SDS011;10522;52.198;9.890;2023-12-14T08:14:00;13.73;;;7.90;;
20721;SDS011;10522;52.198;9.890;2023-12-14T08:16:25;12.80;;;8.53;;
20721;SDS011;10522;52.198;9.890;2023-12-14T08:18:51;13.20;;;7.90;;
20721;SDS011;10522;52.198;9.890;2023-12-14T08:21:17;16.43;;;9.17;;
20721;SDS011;10522;52.198;9.890;2023-12-14T08:23:43;15.50;;;8.50;;
20721;SDS011;10522;52.198;9.890;2023-12-14T08:26:09;11.63;;;7.23;;
20721;SDS011;10522;52.198;9.890;2023-12-14T08:28:36;13.67;;;7.43;;
20721;SDS011;10522;52.198;9.890;2023-12-14T08:31:02;15.70;;;8.63;;
20721;SDS011;10522;52.198;9.890;2023-12-14T08:33:29;14.03;;;7.83;;
20721;SDS011;10522;52.198;9.890;2023-12-14T08:35:55;11.73;;;7.63;;
20721;SDS011;10522;52.198;9.890;2023-12-14T08:38:21;11.43;;;7.50;;
20721;SDS011;10522;52.198;9.890;2023-12-14T08:40:46;10.37;;;7.23;;
20721;SDS011;10522;52.198;9.890;2023-12-14T08:43:12;13.23;;;7.83;;
20721;SDS011;10522;52.198;9.890;2023-12-14T08:45:38;13.03;;;7.53;;
20721;SDS011;10522;52.198;9.890;2023-12-14T08:48:04;10.33;;;7.40;;
20721;SDS011;10522;52.198;9.890;2023-12-14T08:50:30;11.03;;;7.70;;
20721;SDS011;10522;52.198;9.890;2023-12-14T08:52:55;7.97;;;5.87;;
20721;SDS011;10522;52.198;9.890;2023-12-14T08:55:23;9.10;;;5.80;;
20721;SDS011;10522;52.198;9.890;2023-12-14T08:57:49;11.13;;;6.50;;
20721;SDS011;10522;52.198;9.890;2023-12-14T09:00:15;8.63;;;6.07;;
20721;SDS011;10522;52.198;9.890;2023-12-14T09:02:42;9.93;;;6.57;;
20721;SDS011;10522;52.198;9.890;2023-12-14T09:05:10;8.83;;;6.13;;
20721;SDS011;10522;52.198;9.890;2023-12-14T09:07:39;13.23;;;6.43;;
20721;SDS011;10522;52.198;9.890;2023-12-14T09:10:05;6.30;;;5.17;;
20721;SDS011;10522;52.198;9.890;2023-12-14T09:12:32;8.70;;;5.83;;
20721;SDS011;10522;52.198;9.890;2023-12-14T09:14:58;6.60;;;4.80;;
20721;SDS011;10522;52.198;9.890;2023-12-14T09:17:24;10.90;;;5.83;;
20721;SDS011;10522;52.198;9.890;2023-12-14T09:19:49;9.30;;;5.17;;
20721;SDS011;10522;52.198;9.890;2023-12-14T09:22:15;7.77;;;4.70;;
20721;SDS011;10522;52.198;9.890;2023-12-14T09:24:41;9.20;;;5.33;;
20721;SDS011;10522;52.198;9.890;2023-12-14T09:27:06;7.03;;;4.77;;
20721;SDS011;10522;52.198;9.890;2023-12-14T09:29:32;7.57;;;5.37;;
20721;SDS011;10522;52.198;9.890;2023-12-14T09:31:57;6.10;;;3.80;;
20721;SDS011;10522;52.198;9.890;2023-12-14T09:34:23;6.50;;;4.60;;
20721;SDS011;10522;52.198;9.890;2023-12-14T09:36:49;9.13;;;4.27;;
20721;SDS011;10522;52.198;9.890;2023-12-14T09:39:15;7.70;;;4.00;;
20721;SDS011;10522;52.198;9.890;2023-12-14T09:41:40;8.77;;;4.73;;
20721;SDS011;10522;52.198;9.890;2023-12-14T09:44:06;5.30;;;4.17;;
20721;SDS011;10522;52.198;9.890;2023-12-14T09:46:33;7.97;;;4.57;;
20721;SDS011;10522;52.198;9.890;2023-12-14T09:49:01;5.50;;;3.97;;
20721;SDS011;10522;52.198;9.890;2023-12-14T09:51:27;6.27;;;3.97;;
20721;SDS011;10522;52.198;9.890;2023-12-14T09:53:53;10.97;;;4.93;;
20721;SDS011;10522;52.198;9.890;2023-12-14T09:56:26;6.33;;;4.60;;
20721;SDS011;10522;52.198;9.890;2023-12-14T09:58:52;8.93;;;4.67;;
20721;SDS011;10522;52.198;9.890;2023-12-14T10:01:22;7.87;;;4.77;;
20721;SDS011;10522;52.198;9.890;2023-12-14T10:06:48;9.57;;;6.17;;
20721;SDS011;10522;52.198;9.890;2023-12-14T10:09:14;5.13;;;4.00;;
20721;SDS011;10522;52.198;9.890;2023-12-14T10:11:42;4.93;;;4.17;;
20721;SDS011;10522;52.198;9.890;2023-12-14T10:14:21;10.67;;;4.13;;
20721;SDS011;10522;52.198;9.890;2023-12-14T10:16:50;5.60;;;4.10;;
20721;SDS011;10522;52.198;9.890;2023-12-14T10:19:17;6.87;;;4.63;;
20721;SDS011;10522;52.198;9.890;2023-12-14T10:21:43;5.70;;;3.87;;
20721;SDS011;10522;52.198;9.890;2023-12-14T10:24:11;6.80;;;4.47;;
20721;SDS011;10522;52.198;9.890;2023-12-14T10:26:37;7.60;;;4.27;;
20721;SDS011;10522;52.198;9.890;2023-12-14T10:29:03;6.40;;;4.27;;
20721;SDS011;10522;52.198;9.890;2023-12-14T10:31:30;7.17;;;4.30;;
20721;SDS011;10522;52.198;9.890;2023-12-14T10:33:56;6.57;;;4.57;;
20721;SDS011;10522;52.198;9.890;2023-12-14T10:36:22;6.37;;;4.67;;
20721;SDS011;10522;52.198;9.890;2023-12-14T10:38:55;7.07;;;4.27;;
20721;SDS011;10522;52.198;9.890;2023-12-14T10:41:22;6.10;;;4.30;;
20721;SDS011;10522;52.198;9.890;2023-12-14T10:43:49;6.97;;;4.47;;
20721;SDS011;10522;52.198;9.890;2023-12-14T10:46:15;5.10;;;4.00;;
20721;SDS011;10522;52.198;9.890;2023-12-14T10:48:42;7.43;;;4.37;;
20721;SDS011;10522;52.198;9.890;2023-12-14T10:51:11;8.73;;;5.07;;
20721;SDS011;10522;52.198;9.890;2023-12-14T10:53:37;7.97;;;4.27;;
20721;SDS011;10522;52.198;9.890;2023-12-14T10:56:07;6.60;;;4.73;;
20721;SDS011;10522;52.198;9.890;2023-12-14T10:58:52;8.93;;;4.90;;
20721;SDS011;10522;52.198;9.890;2023-12-14T11:01:22;6.80;;;4.67;;
20721;SDS011;10522;52.198;9.890;2023-12-14T11:03:56;5.77;;;3.93;;
20721;SDS011;10522;52.198;9.890;2023-12-14T11:06:35;6.87;;;4.83;;
20721;SDS011;10522;52.198;9.890;2023-12-14T11:09:06;7.33;;;4.90;;
20721;SDS011;10522;52.198;9.890;2023-12-14T11:14:25;7.47;;;4.87;;
20721;SDS011;10522;52.198;9.890;2023-12-14T11:16:55;6.20;;;4.33;;
20721;SDS011;10522;52.198;9.890;2023-12-14T11:19:27;7.80;;;5.13;;
20721;SDS011;10522;52.198;9.890;2023-12-14T11:24:22;10.30;;;5.43;;
20721;SDS011;10522;52.198;9.890;2023-12-14T11:26:49;6.43;;;4.60;;
20721;SDS011;10522;52.198;9.890;2023-12-14T11:29:15;8.03;;;4.90;;
20721;SDS011;10522;52.198;9.890;2023-12-14T11:31:42;6.10;;;4.53;;
20721;SDS011;10522;52.198;9.890;2023-12-14T11:34:07;8.80;;;5.43;;
20721;SDS011;10522;52.198;9.890;2023-12-14T11:36:33;7.93;;;4.87;;
20721;SDS011;10522;52.198;9.890;2023-12-14T11:38:59;7.73;;;5.10;;
20721;SDS011;10522;52.198;9.890;2023-12-14T11:41:24;11.37;;;5.33;;
20721;SDS011;10522;52.198;9.890;2023-12-14T11:43:50;12.40;;;5.00;;
20721;SDS011;10522;52.198;9.890;2023-12-14T11:46:16;8.40;;;4.30;;
20721;SDS011;10522;52.198;9.890;2023-12-14T11:48:43;9.60;;;5.43;;
20721;SDS011;10522;52.198;9.890;2023-12-14T11:51:11;8.03;;;4.93;;
20721;SDS011;10522;52.198;9.890;2023-12-14T11:53:37;7.67;;;5.23;;
20721;SDS011;10522;52.198;9.890;2023-12-14T11:56:07;8.10;;;4.97;;
20721;SDS011;10522;52.198;9.890;2023-12-14T11:58:35;9.90;;;5.10;;
20721;SDS011;10522;52.198;9.890;2023-12-14T12:01:10;8.27;;;4.90;;
20721;SDS011;10522;52.198;9.890;2023-12-14T12:03:37;8.80;;;4.97;;
20721;SDS011;10522;52.198;9.890;2023-12-14T12:06:03;11.00;;;5.17;;
20721;SDS011;10522;52.198;9.890;2023-12-14T12:08:28;8.33;;;5.83;;
20721;SDS011;10522;52.198;9.890;2023-12-14T12:10:55;7.70;;;5.00;;
20721;SDS011;10522;52.198;9.890;2023-12-14T12:13:22;9.93;;;5.20;;
20721;SDS011;10522;52.198;9.890;2023-12-14T12:15:48;7.73;;;5.47;;
20721;SDS011;10522;52.198;9.890;2023-12-14T12:18:15;13.60;;;6.00;;
20721;SDS011;10522;52.198;9.890;2023-12-14T12:20:44;6.97;;;4.73;;
20721;SDS011;10522;52.198;9.890;2023-12-14T12:23:11;9.73;;;5.93;;
20721;SDS011;10522;52.198;9.890;2023-12-14T12:25:36;9.87;;;5.63;;
20721;SDS011;10522;52.198;9.890;2023-12-14T12:28:02;14.40;;;5.80;;
20721;SDS011;10522;52.198;9.890;2023-12-14T12:30:31;9.07;;;5.63;;
20721;SDS011;10522;52.198;9.890;2023-12-14T12:32:57;7.27;;;5.23;;
20721;SDS011;10522;52.198;9.890;2023-12-14T12:35:23;10.93;;;5.80;;
20721;SDS011;10522;52.198;9.890;2023-12-14T12:37:50;10.40;;;6.53;;
20721;SDS011;10522;52.198;9.890;2023-12-14T12:40:22;7.97;;;5.60;;
20721;SDS011;10522;52.198;9.890;2023-12-14T12:42:50;10.97;;;6.33;;
20721;SDS011;10522;52.198;9.890;2023-12-14T12:45:16;9.30;;;5.73;;
20721;SDS011;10522;52.198;9.890;2023-12-14T12:47:43;9.70;;;5.83;;
20721;SDS011;10522;52.198;9.890;2023-12-14T12:50:09;11.13;;;6.17;;
20721;SDS011;10522;52.198;9.890;2023-12-14T12:52:34;8.43;;;5.40;;
20721;SDS011;10522;52.198;9.890;2023-12-14T12:55:00;10.70;;;5.90;;
20721;SDS011;10522;52.198;9.890;2023-12-14T12:57:27;10.67;;;6.50;;
20721;SDS011;10522;52.198;9.890;2023-12-14T12:59:52;8.83;;;5.70;;
20721;SDS011;10522;52.198;9.890;2023-12-14T13:02:18;9.30;;;6.20;;
20721;SDS011;10522;52.198;9.890;2023-12-14T13:04:43;10.60;;;6.00;;
20721;SDS011;10522;52.198;9.890;2023-12-14T13:07:09;8.67;;;5.80;;
20721;SDS011;10522;52.198;9.890;2023-12-14T13:09:37;9.00;;;5.33;;
20721;SDS011;10522;52.198;9.890;2023-12-14T13:12:03;12.03;;;6.43;;
20721;SDS011;10522;52.198;9.890;2023-12-14T13:14:29;12.07;;;6.33;;
20721;SDS011;10522;52.198;9.890;2023-12-14T13:16:56;7.40;;;5.33;;
20721;SDS011;10522;52.198;9.890;2023-12-14T13:19:23;9.80;;;6.47;;
20721;SDS011;10522;52.198;9.890;2023-12-14T13:21:50;13.53;;;6.20;;
20721;SDS011;10522;52.198;9.890;2023-12-14T13:24:16;9.03;;;5.70;;
20721;SDS011;10522;52.198;9.890;2023-12-14T13:26:42;10.53;;;6.17;;
20721;SDS011;10522;52.198;9.890;2023-12-14T13:29:07;13.03;;;6.17;;
20721;SDS011;10522;52.198;9.890;2023-12-14T13:31:33;8.47;;;5.47;;
20721;SDS011;10522;52.198;9.890;2023-12-14T13:33:59;9.07;;;5.53;;
20721;SDS011;10522;52.198;9.890;2023-12-14T13:36:24;11.07;;;5.53;;
20721;SDS011;10522;52.198;9.890;2023-12-14T13:38:50;7.17;;;5.40;;
20721;SDS011;10522;52.198;9.890;2023-12-14T13:41:16;9.63;;;6.23;;
20721;SDS011;10522;52.198;9.890;2023-12-14T13:43:41;9.93;;;6.40;;
20721;SDS011;10522;52.198;9.890;2023-12-14T13:46:08;8.30;;;5.40;;
20721;SDS011;10522;52.198;9.890;2023-12-14T13:48:34;7.53;;;5.17;;
20721;SDS011;10522;52.198;9.890;2023-12-14T13:51:00;8.67;;;4.77;;
20721;SDS011;10522;52.198;9.890;2023-12-14T13:53:25;8.23;;;5.70;;
20721;SDS011;10522;52.198;9.890;2023-12-14T13:55:51;11.27;;;6.23;;
20721;SDS011;10522;52.198;9.890;2023-12-14T13:58:17;8.83;;;5.10;;
20721;SDS011;10522;52.198;9.890;2023-12-14T14:00:43;11.63;;;6.47;;
20721;SDS011;10522;52.198;9.890;2023-12-14T14:03:09;10.23;;;5.67;;
20721;SDS011;10522;52.198;9.890;2023-12-14T14:05:35;9.43;;;5.03;;
20721;SDS011;10522;52.198;9.890;2023-12-14T14:08:00;12.03;;;5.93;;
20721;SDS011;10522;52.198;9.890;2023-12-14T14:10:26;14.30;;;7.10;;
20721;SDS011;10522;52.198;9.890;2023-12-14T14:12:52;9.60;;;5.47;;
20721;SDS011;10522;52.198;9.890;2023-12-14T14:15:18;10.43;;;5.80;;
20721;SDS011;10522;52.198;9.890;2023-12-14T14:17:45;11.20;;;5.17;;
20721;SDS011;10522;52.198;9.890;2023-12-14T14:20:13;8.40;;;5.70;;
20721;SDS011;10522;52.198;9.890;2023-12-14T14:22:38;14.63;;;5.97;;
20721;SDS011;10522;52.198;9.890;2023-12-14T14:25:04;10.43;;;5.73;;
20721;SDS011;10522;52.198;9.890;2023-12-14T14:27:32;9.20;;;5.43;;
20721;SDS011;10522;52.198;9.890;2023-12-14T14:29:58;10.13;;;5.33;;
20721;SDS011;10522;52.198;9.890;2023-12-14T14:32:24;9.37;;;5.80;;
20721;SDS011;10522;52.198;9.890;2023-12-14T14:34:51;10.53;;;5.60;;
20721;SDS011;10522;52.198;9.890;2023-12-14T14:37:18;9.20;;;6.37;;
20721;SDS011;10522;52.198;9.890;2023-12-14T14:39:43;7.80;;;5.60;;
20721;SDS011;10522;52.198;9.890;2023-12-14T14:42:09;9.07;;;5.90;;